Time;durP1;ratioP1;P1;durP2;ratioP2;P2;SDS_P1;SDS_P2;PMS_P1;PMS_P2;Temp;Humidity;BMP_temperature;BMP_pressure;BME280_temperature;BME280_humidity;BME280_pressure;Samples;Min_cycle;Max_cycle;Signal;HPM_P1;HPM_P2
2022/04/06 12:45:49;;;;;;;3.10;2.35;;;;;;;;;;7370745;19;132726;-15
2022/04/06 12:48:21;;;;;;;2.40;2.20;;;;;;;;;;7364742;19;153553;-14
2022/04/06 12:51:23;;;;;;;1.95;1.77;;;;;;;;;;7364732;19;161821;-14
2022/04/06 12:53:57;;;;;;;4.38;2.00;;;;;;;;;;7363027;19;162565;-15
2022/04/06 12:56:28;;;;;;;2.28;2.08;;;;;;;;;;7364879;19;153870;-16
2022/04/06 12:59:10;;;;;;;2.20;2.00;;;;;;;;;;7364387;19;153888;-16
2022/04/06 13:01:50;;;;;;;2.30;2.10;;;;;;;;;;7363167;19;162170;-16
2022/04/06 13:04:21;;;;;;;3.83;2.33;;;;;;;;;;7366706;19;162695;-17
2022/04/06 13:06:52;;;;;;;2.40;2.08;;;;;;;;;;7367701;19;153899;-14
2022/04/06 13:09:24;;;;;;;3.58;2.03;;;;;;;;;;7367351;19;153545;-15
2022/04/06 13:11:55;;;;;;;2.33;2.03;;;;;;;;;;7363695;19;162090;-15
2022/04/06 13:14:28;;;;;;;3.35;1.67;;;;;;;;;;7362174;19;162415;-15
2022/04/06 13:17:04;;;;;;;3.25;1.50;;;;;;;;;;7363495;19;154262;-16
2022/04/06 13:19:36;;;;;;;3.63;1.70;;;;;;;;;;7357077;19;153526;-16
2022/04/06 13:22:07;;;;;;;4.00;1.65;;;;;;;;;;7367403;19;161813;-15
2022/04/06 13:24:39;;;;;;;3.80;1.48;;;;;;;;;;7363311;19;162510;-15
2022/04/06 13:27:11;;;;;;;4.13;1.60;;;;;;;;;;7363358;19;153887;-15
2022/04/06 13:29:43;;;;;;;2.75;1.90;;;;;;;;;;7363422;19;153711;-15
2022/04/06 13:32:17;;;;;;;2.25;2.00;;;;;;;;;;7362735;19;161962;-15
2022/04/06 13:34:49;;;;;;;6.22;1.88;;;;;;;;;;7359846;19;162365;-14
2022/04/06 13:37:20;;;;;;;4.32;1.95;;;;;;;;;;7363290;19;154330;-14
2022/04/06 13:39:51;;;;;;;3.95;2.10;;;;;;;;;;7362518;19;153724;-14
2022/04/06 13:42:23;;;;;;;7.60;2.03;;;;;;;;;;7361542;19;161765;-15
2022/04/06 13:44:54;;;;;;;47.63;17.60;;;;;;;;;;7353224;19;162551;-16
2022/04/06 13:47:28;;;;;;;198.43;72.93;;;;;;;;;;7334606;19;154212;-12
2022/04/06 13:50:00;;;;;;;205.60;81.85;;;;;;;;;;7332032;19;153836;-14
2022/04/06 13:52:32;;;;;;;194.00;74.07;;;;;;;;;;7333100;19;161959;-14
2022/04/06 13:55:03;;;;;;;190.68;71.72;;;;;;;;;;7332242;19;162546;-14
2022/04/06 13:57:35;;;;;;;186.98;73.43;;;;;;;;;;7334164;19;153979;-16
2022/04/06 14:00:09;;;;;;;169.20;70.50;;;;;;;;;;7334086;19;153622;-15
2022/04/06 14:02:48;;;;;;;164.85;63.13;;;;;;;;;;7333327;19;161842;-16
2022/04/06 14:05:20;;;;;;;163.50;62.95;;;;;;;;;;7333161;19;162649;-16
2022/04/06 14:07:52;;;;;;;156.73;62.40;;;;;;;;;;7333835;19;153856;-15
2022/04/06 14:10:23;;;;;;;153.63;63.58;;;;;;;;;;7333716;19;153638;-15
2022/04/06 14:12:54;;;;;;;134.85;57.17;;;;;;;;;;7332173;19;161819;-14
2022/04/06 14:15:25;;;;;;;140.10;60.85;;;;;;;;;;7331441;19;162210;-14
2022/04/06 14:17:59;;;;;;;139.85;59.22;;;;;;;;;;7333536;19;153952;-12
2022/04/06 14:20:30;;;;;;;139.18;60.15;;;;;;;;;;7333630;19;153604;-13
2022/04/06 14:23:01;;;;;;;149.02;62.33;;;;;;;;;;7332884;19;161845;-14
2022/04/06 14:25:33;;;;;;;136.07;58.38;;;;;;;;;;7332766;19;162312;-14
2022/04/06 14:28:04;;;;;;;141.98;57.38;;;;;;;;;;7333206;19;153868;-14
2022/04/06 14:30:35;;;;;;;131.68;58.25;;;;;;;;;;7333248;19;154020;-13
2022/04/06 14:33:09;;;;;;;122.90;55.53;;;;;;;;;;7331749;19;162082;-15
2022/04/06 14:35:40;;;;;;;136.60;56.55;;;;;;;;;;7330850;19;162505;-14
2022/04/06 14:38:12;;;;;;;131.07;58.10;;;;;;;;;;7332807;19;154017;-15
2022/04/06 14:40:47;;;;;;;139.77;57.08;;;;;;;;;;7332710;19;153641;-16
2022/04/06 14:43:19;;;;;;;123.38;54.85;;;;;;;;;;7331905;19;162042;-14
2022/04/06 14:45:52;;;;;;;118.97;52.53;;;;;;;;;;7332501;19;162430;-15
2022/04/06 14:48:26;;;;;;;117.32;51.75;;;;;;;;;;7332668;19;154049;-15
2022/04/06 14:50:57;;;;;;;115.50;52.35;;;;;;;;;;7332597;19;153635;-15
2022/04/06 14:53:31;;;;;;;111.00;51.05;;;;;;;;;;7332251;19;161760;-14
2022/04/06 14:56:03;;;;;;;114.10;52.80;;;;;;;;;;7328987;19;162283;-15
2022/04/06 14:58:34;;;;;;;117.85;51.88;;;;;;;;;;7330836;19;153896;-15
2022/04/06 15:01:07;;;;;;;106.00;52.50;;;;;;;;;;7332372;19;153932;-14
2022/04/06 15:03:41;;;;;;;112.45;52.53;;;;;;;;;;7330979;19;162339;-14
2022/04/06 15:06:12;;;;;;;113.63;51.53;;;;;;;;;;7331775;19;162423;-15
2022/04/06 15:08:44;;;;;;;113.30;51.22;;;;;;;;;;7332044;19;153985;-15
2022/04/06 15:11:16;;;;;;;101.50;49.17;;;;;;;;;;7332038;19;153503;-15
2022/04/06 15:13:47;;;;;;;121.07;51.22;;;;;;;;;;7331681;19;161899;-13
2022/04/06 15:16:18;;;;;;;104.40;47.78;;;;;;;;;;7329396;19;162626;-14
2022/04/06 15:18:52;;;;;;;109.10;49.13;;;;;;;;;;7331968;19;153940;-15
2022/04/06 15:21:24;;;;;;;100.05;46.40;;;;;;;;;;7331870;19;153620;-14
2022/04/06 15:23:56;;;;;;;99.37;46.70;;;;;;;;;;7331529;19;161948;-15
2022/04/06 15:26:27;;;;;;;97.82;46.17;;;;;;;;;;7331072;19;162345;-14
2022/04/06 15:28:58;;;;;;;106.50;49.15;;;;;;;;;;7331277;19;154262;-16
2022/04/06 15:31:29;;;;;;;101.88;47.35;;;;;;;;;;7331336;19;153896;-15
2022/04/06 15:34:03;;;;;;;101.75;46.55;;;;;;;;;;7330988;19;161920;-12
2022/04/06 15:39:18;;;;;;;89.43;44.03;;;;;;;;;;7329985;19;154135;-14
2022/04/06 15:41:50;;;;;;;93.03;45.65;;;;;;;;;;7330997;19;153661;-15
2022/04/06 15:44:21;;;;;;;97.47;45.03;;;;;;;;;;7328629;19;162018;-16
2022/04/06 15:46:52;;;;;;;92.38;44.25;;;;;;;;;;7329923;19;162211;-14
2022/04/06 15:49:27;;;;;;;88.22;41.03;;;;;;;;;;7330953;19;154173;-12
2022/04/06 15:51:58;;;;;;;95.93;43.80;;;;;;;;;;7330583;19;153633;-14
2022/04/06 15:54:29;;;;;;;96.68;44.40;;;;;;;;;;7330292;19;161790;-15
2022/04/06 15:57:01;;;;;;;85.82;41.33;;;;;;;;;;7326666;19;162709;-16
2022/04/06 15:59:32;;;;;;;76.53;39.92;;;;;;;;;;7330627;19;154197;-15
2022/04/06 16:02:04;;;;;;;81.15;39.40;;;;;;;;;;7330594;19;153601;-18
2022/04/06 16:04:38;;;;;;;80.43;38.70;;;;;;;;;;7330028;19;162512;-15
2022/04/06 16:07:09;;;;;;;81.90;39.10;;;;;;;;;;7329935;19;162474;-14
2022/04/06 16:09:41;;;;;;;83.90;39.90;;;;;;;;;;7329744;19;153905;-16
2022/04/06 16:12:12;;;;;;;81.22;38.47;;;;;;;;;;7330278;19;153662;-15
2022/04/06 16:14:43;;;;;;;77.47;36.40;;;;;;;;;;7329818;19;161815;-15
2022/04/06 16:17:16;;;;;;;69.90;36.05;;;;;;;;;;7327089;19;162389;-15
2022/04/06 16:19:50;;;;;;;77.18;37.25;;;;;;;;;;7330216;19;154064;-16
2022/04/06 16:22:21;;;;;;;74.78;35.83;;;;;;;;;;7330105;19;153867;-15
2022/04/06 16:24:53;;;;;;;74.78;36.65;;;;;;;;;;7329504;19;161982;-16
2022/04/06 16:27:24;;;;;;;73.30;37.05;;;;;;;;;;7329572;19;162356;-15
2022/04/06 16:29:56;;;;;;;74.20;37.40;;;;;;;;;;7329967;19;153953;-15
2022/04/06 16:32:27;;;;;;;67.22;35.83;;;;;;;;;;7329823;19;153599;-14
2022/04/06 16:35:01;;;;;;;73.63;34.72;;;;;;;;;;7329077;19;161890;-15
2022/04/06 16:37:32;;;;;;;64.10;33.00;;;;;;;;;;7326529;19;162488;-15
2022/04/06 16:40:03;;;;;;;70.32;33.83;;;;;;;;;;7329819;19;154098;-15
2022/04/06 16:42:35;;;;;;;71.30;34.00;;;;;;;;;;7329529;19;153874;-16
2022/04/06 16:45:07;;;;;;;69.57;32.75;;;;;;;;;;7326244;19;161946;-14
2022/04/06 16:47:38;;;;;;;70.25;33.50;;;;;;;;;;7328816;19;163025;-14
2022/04/06 16:52:56;;;;;;;71.45;30.38;;;;;;;;;;7328945;19;153903;-15
2022/04/06 16:55:27;;;;;;;61.00;30.30;;;;;;;;;;7328699;19;161908;-14
2022/04/06 16:57:59;;;;;;;66.13;31.70;;;;;;;;;;7325815;19;162278;-15
2022/04/06 17:00:30;;;;;;;68.30;30.10;;;;;;;;;;7327484;19;154116;-14
2022/04/06 17:03:01;;;;;;;59.88;30.27;;;;;;;;;;7328630;19;153657;-15
2022/04/06 17:05:35;;;;;;;64.28;28.75;;;;;;;;;;7327060;19;161901;-14
2022/04/06 17:08:07;;;;;;;59.60;30.15;;;;;;;;;;7328210;19;162373;-15
2022/04/06 17:10:39;;;;;;;56.47;28.67;;;;;;;;;;7328458;19;153964;-15
2022/04/06 17:13:11;;;;;;;57.90;28.52;;;;;;;;;;7328273;19;153717;-14
2022/04/06 17:15:42;;;;;;;56.97;28.83;;;;;;;;;;7327854;19;161861;-13
2022/04/06 17:18:17;;;;;;;58.88;27.70;;;;;;;;;;7327370;19;162350;-14
2022/04/06 17:20:56;;;;;;;56.25;26.67;;;;;;;;;;7332103;19;154017;-14
2022/04/06 17:23:28;;;;;;;56.60;28.15;;;;;;;;;;7335195;19;153803;-15
2022/04/06 17:25:59;;;;;;;55.80;28.33;;;;;;;;;;7334731;19;162195;-15
2022/04/06 17:28:32;;;;;;;56.30;28.75;;;;;;;;;;7334844;19;162445;-15
2022/04/06 17:31:03;;;;;;;49.65;27.33;;;;;;;;;;7334913;19;154115;-14
2022/04/06 17:33:34;;;;;;;51.97;26.55;;;;;;;;;;7334646;19;153589;-15
2022/04/06 17:36:09;;;;;;;47.97;24.58;;;;;;;;;;7334169;19;161848;-14
2022/04/06 17:38:41;;;;;;;48.58;25.55;;;;;;;;;;7334541;19;162523;-15
2022/04/06 17:41:14;;;;;;;55.40;25.88;;;;;;;;;;7334455;19;153935;-13
2022/04/06 17:43:46;;;;;;;47.65;23.80;;;;;;;;;;7333750;19;153634;-14
2022/04/06 17:46:17;;;;;;;48.97;24.02;;;;;;;;;;7334085;19;161706;-15
2022/04/06 17:48:49;;;;;;;47.50;24.23;;;;;;;;;;7334230;19;162633;-14
2022/04/06 17:51:23;;;;;;;47.70;24.00;;;;;;;;;;7334488;19;154053;-15
2022/04/06 17:53:54;;;;;;;48.15;24.30;;;;;;;;;;7334338;19;153602;-15
2022/04/06 17:56:26;;;;;;;49.08;24.67;;;;;;;;;;7333332;19;161856;-15
2022/04/06 17:58:57;;;;;;;50.05;23.90;;;;;;;;;;7333568;19;162556;-14
2022/04/06 18:01:28;;;;;;;55.55;23.77;;;;;;;;;;7332892;19;153993;-15
2022/04/06 18:03:59;;;;;;;49.60;24.15;;;;;;;;;;7333990;19;154036;-14
2022/04/06 18:06:35;;;;;;;46.33;23.20;;;;;;;;;;7333318;19;161984;-14
2022/04/06 18:09:09;;;;;;;48.53;25.00;;;;;;;;;;7332128;19;162638;-16
2022/04/06 18:14:24;;;;;;;40.95;22.65;;;;;;;;;;7333752;19;153773;-14
2022/04/06 18:16:55;;;;;;;42.13;20.48;;;;;;;;;;7331329;19;161868;-14
2022/04/06 18:19:26;;;;;;;37.40;20.17;;;;;;;;;;7332819;19;162543;-15
2022/04/06 18:22:00;;;;;;;41.30;21.73;;;;;;;;;;7333030;19;154033;-15
2022/04/06 18:24:31;;;;;;;40.28;21.27;;;;;;;;;;7333392;19;153873;-15
2022/04/06 18:27:02;;;;;;;38.80;19.65;;;;;;;;;;7332891;19;161500;-15
2022/04/06 18:29:34;;;;;;;41.45;20.55;;;;;;;;;;7332862;19;162318;-15
2022/04/06 18:32:06;;;;;;;41.60;20.50;;;;;;;;;;7332796;19;154067;-14
2022/04/06 18:34:38;;;;;;;37.60;20.70;;;;;;;;;;7333112;19;153606;-14
2022/04/06 18:37:12;;;;;;;37.83;20.15;;;;;;;;;;7332144;19;162042;-15
2022/04/06 18:39:43;;;;;;;38.63;20.58;;;;;;;;;;7332661;19;162227;-15
2022/04/06 18:42:14;;;;;;;40.25;21.42;;;;;;;;;;7332666;19;154031;-13
2022/04/06 18:44:46;;;;;;;36.17;19.60;;;;;;;;;;7330496;19;154853;-15
2022/04/06 18:47:17;;;;;;;36.05;19.80;;;;;;;;;;7332429;19;161756;-15
2022/04/06 18:49:48;;;;;;;37.40;19.15;;;;;;;;;;7332341;19;162456;-14
2022/04/06 18:52:23;;;;;;;36.95;20.58;;;;;;;;;;7332359;19;154663;-14
2022/04/06 18:54:56;;;;;;;36.35;17.75;;;;;;;;;;7332430;19;153873;-16
2022/04/06 18:57:28;;;;;;;32.90;18.23;;;;;;;;;;7331411;19;163376;-16
2022/04/06 18:59:59;;;;;;;35.70;17.90;;;;;;;;;;7331914;19;162426;-14
2022/04/06 19:02:30;;;;;;;38.45;18.40;;;;;;;;;;7332605;19;153930;-14
2022/04/06 19:05:03;;;;;;;31.92;18.27;;;;;;;;;;7332417;19;153707;-15
2022/04/06 19:07:36;;;;;;;32.05;17.45;;;;;;;;;;7331769;19;161904;-15
2022/04/06 19:10:09;;;;;;;36.25;17.10;;;;;;;;;;7331772;19;162276;-15
2022/04/06 19:12:44;;;;;;;32.35;17.92;;;;;;;;;;7332154;19;154057;-14
2022/04/06 19:15:15;;;;;;;36.92;18.20;;;;;;;;;;7332149;19;153597;-14
2022/04/06 19:17:50;;;;;;;32.38;17.15;;;;;;;;;;7330414;19;161963;-13
2022/04/06 19:20:22;;;;;;;31.27;16.17;;;;;;;;;;7331309;19;162365;-15
2022/04/06 19:22:56;;;;;;;37.35;17.65;;;;;;;;;;7331867;19;154033;-14
2022/04/06 19:25:27;;;;;;;34.38;17.10;;;;;;;;;;7331735;19;153662;-14
2022/04/06 19:27:59;;;;;;;31.48;16.33;;;;;;;;;;7331222;19;161915;-15
2022/04/06 19:30:31;;;;;;;28.57;16.27;;;;;;;;;;7330031;19;162950;-15
2022/04/06 19:33:02;;;;;;;30.58;15.68;;;;;;;;;;7331302;19;153962;-14
2022/04/06 19:35:34;;;;;;;30.98;17.55;;;;;;;;;;7331604;19;153764;-15
2022/04/06 19:38:08;;;;;;;29.90;15.32;;;;;;;;;;7330229;19;161821;-14
2022/04/06 19:40:39;;;;;;;30.77;16.02;;;;;;;;;;7330969;19;162351;-16
2022/04/06 19:43:10;;;;;;;29.85;15.50;;;;;;;;;;7329198;19;154072;-14
2022/04/06 19:45:41;;;;;;;28.55;14.82;;;;;;;;;;7331001;19;153588;-14
2022/04/06 19:48:13;;;;;;;30.33;15.65;;;;;;;;;;7330696;19;161832;-14
2022/04/06 19:50:44;;;;;;;24.42;14.80;;;;;;;;;;7330629;19;162616;-14
2022/04/06 19:53:18;;;;;;;26.10;14.27;;;;;;;;;;7330955;19;153958;-15
2022/04/06 19:55:50;;;;;;;26.38;14.13;;;;;;;;;;7330595;19;153641;-15
2022/04/06 19:58:21;;;;;;;24.92;15.10;;;;;;;;;;7329574;19;161888;-14
2022/04/06 20:00:53;;;;;;;26.73;14.43;;;;;;;;;;7330465;19;162798;-13
2022/04/06 20:03:24;;;;;;;30.20;15.23;;;;;;;;;;7330375;19;153935;-14
2022/04/06 20:05:58;;;;;;;26.77;13.77;;;;;;;;;;7331120;19;154264;-15
2022/04/06 20:08:32;;;;;;;26.30;15.02;;;;;;;;;;7328166;19;161919;-15
2022/04/06 20:11:04;;;;;;;26.08;14.73;;;;;;;;;;7333002;19;162404;-15
2022/04/06 20:13:37;;;;;;;21.90;13.85;;;;;;;;;;7329971;19;154161;-15
2022/04/06 20:16:09;;;;;;;26.90;13.63;;;;;;;;;;7329698;19;153817;-15
2022/04/06 20:18:40;;;;;;;23.90;14.30;;;;;;;;;;7327387;19;162003;-16
2022/04/06 20:21:11;;;;;;;24.20;13.23;;;;;;;;;;7329090;19;162616;-15
2022/04/06 20:23:46;;;;;;;23.55;13.85;;;;;;;;;;7328619;19;153959;-14
2022/04/06 20:26:17;;;;;;;24.92;14.10;;;;;;;;;;7328965;19;153629;-14
2022/04/06 20:28:48;;;;;;;24.77;13.48;;;;;;;;;;7328844;19;161876;-14
2022/04/06 20:31:20;;;;;;;24.40;13.77;;;;;;;;;;7328646;19;162339;-14
2022/04/06 20:33:51;;;;;;;24.67;12.70;;;;;;;;;;7328277;19;153910;-15
2022/04/06 20:36:23;;;;;;;22.08;11.98;;;;;;;;;;7326663;19;153598;-13
2022/04/06 20:38:57;;;;;;;22.20;11.60;;;;;;;;;;7327255;19;161801;-13
2022/04/06 20:41:28;;;;;;;22.30;12.02;;;;;;;;;;7328688;19;162676;-13
2022/04/06 20:44:01;;;;;;;21.38;11.82;;;;;;;;;;7327817;19;153694;-13
2022/04/06 20:46:33;;;;;;;19.88;11.75;;;;;;;;;;7328823;19;153731;-15
2022/04/06 20:49:05;;;;;;;25.02;12.52;;;;;;;;;;7330540;19;161715;-13
2022/04/06 20:51:39;;;;;;;21.80;11.80;;;;;;;;;;7331428;19;162356;-16
2022/04/06 20:54:18;;;;;;;22.65;12.15;;;;;;;;;;7331703;19;154368;-14
2022/04/06 20:56:50;;;;;;;22.92;11.90;;;;;;;;;;7331834;19;153584;-13
2022/04/06 20:59:21;;;;;;;22.48;11.95;;;;;;;;;;7332192;19;161966;-13
2022/04/06 21:01:52;;;;;;;23.10;12.25;;;;;;;;;;7334780;19;162608;-13
2022/04/06 21:04:24;;;;;;;25.38;12.55;;;;;;;;;;7335267;19;154193;-15
2022/04/06 21:06:56;;;;;;;21.25;12.18;;;;;;;;;;7335920;19;154210;-15
2022/04/06 21:09:30;;;;;;;20.13;10.80;;;;;;;;;;7337513;19;161820;-14
2022/04/06 21:12:01;;;;;;;22.60;11.32;;;;;;;;;;7337693;19;162547;-12
2022/04/06 21:14:32;;;;;;;16.80;9.63;;;;;;;;;;7338760;19;154283;-14
2022/04/06 21:17:04;;;;;;;18.45;10.13;;;;;;;;;;7337846;19;153560;-14
2022/04/06 21:19:36;;;;;;;19.02;9.48;;;;;;;;;;7336891;19;162007;-14
2022/04/06 21:22:08;;;;;;;17.15;10.27;;;;;;;;;;7337166;19;162336;-13
2022/04/06 21:24:41;;;;;;;17.48;9.15;;;;;;;;;;7337488;19;153978;-14
2022/04/06 21:27:13;;;;;;;18.17;9.48;;;;;;;;;;7334554;19;153840;-14
2022/04/06 21:29:46;;;;;;;16.58;9.70;;;;;;;;;;7336006;19;161858;-14
2022/04/06 21:32:17;;;;;;;17.35;9.18;;;;;;;;;;7337629;19;162501;-14
2022/04/06 21:34:49;;;;;;;15.27;9.25;;;;;;;;;;7338698;19;153972;-16
2022/04/06 21:37:20;;;;;;;17.15;9.32;;;;;;;;;;7334939;19;153796;-13
2022/04/06 21:39:54;;;;;;;18.70;8.70;;;;;;;;;;7333054;19;161922;-15
2022/04/06 21:42:25;;;;;;;16.02;10.05;;;;;;;;;;7334180;19;162338;-14
2022/04/06 21:44:56;;;;;;;12.82;7.85;;;;;;;;;;7334684;19;154197;-13
2022/04/06 21:47:27;;;;;;;13.55;8.77;;;;;;;;;;7337316;19;153568;-13
2022/04/06 21:49:59;;;;;;;18.33;9.57;;;;;;;;;;7336753;19;161874;-14
2022/04/06 21:52:31;;;;;;;16.60;8.38;;;;;;;;;;7335845;19;162608;-15
2022/04/06 21:55:07;;;;;;;19.50;8.98;;;;;;;;;;7337259;19;153933;-13
2022/04/06 21:57:38;;;;;;;16.27;10.00;;;;;;;;;;7337663;19;153652;-13
2022/04/06 22:00:17;;;;;;;17.25;8.10;;;;;;;;;;7335163;19;162011;-15
2022/04/06 22:02:49;;;;;;;14.55;8.95;;;;;;;;;;7335460;19;162371;-15
2022/04/06 22:05:20;;;;;;;13.18;8.57;;;;;;;;;;7337144;19;154401;-16
2022/04/06 22:07:51;;;;;;;16.38;8.68;;;;;;;;;;7336480;19;154005;-15
2022/04/06 22:10:26;;;;;;;12.48;7.60;;;;;;;;;;7336569;19;161979;-15
2022/04/06 22:12:57;;;;;;;15.20;7.70;;;;;;;;;;7336718;19;162342;-15
2022/04/06 22:15:28;;;;;;;15.57;8.82;;;;;;;;;;7336823;19;154075;-15
2022/04/06 22:18:00;;;;;;;13.77;7.90;;;;;;;;;;7336927;19;153537;-15
2022/04/06 22:20:31;;;;;;;12.18;7.82;;;;;;;;;;7334917;19;161773;-15
2022/04/06 22:23:03;;;;;;;12.07;7.50;;;;;;;;;;7335856;19;162381;-16
2022/04/06 22:25:37;;;;;;;14.52;7.57;;;;;;;;;;7336747;19;154005;-16
2022/04/06 22:28:08;;;;;;;14.10;8.00;;;;;;;;;;7334651;19;153561;-15
2022/04/06 22:30:40;;;;;;;16.30;8.48;;;;;;;;;;7332491;19;162165;-15
2022/04/06 22:33:11;;;;;;;17.35;7.03;;;;;;;;;;7332652;19;162457;-15
2022/04/06 22:35:43;;;;;;;14.35;6.97;;;;;;;;;;7333046;19;153909;-16
2022/04/06 22:38:14;;;;;;;12.98;6.95;;;;;;;;;;7331892;19;153554;-14
2022/04/06 22:40:48;;;;;;;14.52;7.03;;;;;;;;;;7330279;19;161777;-16
2022/04/06 22:43:22;;;;;;;16.80;7.35;;;;;;;;;;7335259;19;162462;-14
2022/04/06 22:45:53;;;;;;;20.20;7.90;;;;;;;;;;7331678;19;154092;-14
2022/04/06 22:48:25;;;;;;;20.52;8.05;;;;;;;;;;7332788;19;153383;-14
